Brainardsville, New York
Current Conditions -  °F | °C
As of 7:53 AM on Sunday 23 Nov 2014 (Local Time) from KPBG Reporting Station
Overcast Overcast  
Wind Chill: 40°   Ceiling: 3000
Heat Index: 40°   Visibility: 10mi
Dew Point: 37°   Wind: 3mph
Humidity: 89%   Direction: 220°SW
Pressure: 30.03"   Gusts: NA
Location:  44.86°N, 74.03°W
Report Text: KPBG 231253Z AUTO 22003KT 10SM OVC030 04/03 A3003 RMK AO2 SLP172 T00440028
Loading
Personal Weather Stations






























Interactive Weather Map New forecast layout! Learn more

10-Day Weather Forecast

Advertisements
Track Severe Weather on mobile